Madrid, España

3:44 PM CEST en Septiembre 01, 2014 (GMT +0200)
Madrid - Las Mercedes | Change Station
CLOSE
Current Station
Estación meteorológica personal
Location: Madrid, COMUNIDAD DE MADRID
Altura: 2037 ft
Estaciones meteorológicas cercanas
Aviso en curso: Extreme high temperature

Alt 2037 ft 40.44 °N, 3.59 °W | Updated 14 minutes ago

Partly Cloudy
Parcialmente nublado
92.3 ° F
Sensación térmica 89 ° F
N
6.9
Viento Variable Viento desde Oeste
Gusts 11.4 mph

Hoy
Alta -- | Baja -- ° F
--% Posibilidad de precipitaciones
Ayer
Alta -- | Baja -- ° F
Precip. -- pul
7:41 AM 8:46 PM
Creciente, 41% visible
Presión 30.01 pul
Visibilidad 6.2 Millas
Nubes Baja 5000 ft
Índice de calor 89 ° F
Punto de rocío 52 ° F
Humedad 25%
Precipitaciones 0.00 pul
Espesor de la nieve No disponible.
UV 9 de una escala de 12
Polen No disponible.
Calidad del aire No disponible.
Flu Activity No disponible.
METAR LEMD 011330Z 23007KT 180V340 9999 FEW050 35/11 Q1016 NOSIG

More Conditions Fewer Conditions

Presión 30.01 pul
Visibilidad 6.2 Millas
Nubes Baja 5000 ft
Índice de calor 89 ° F
Punto de rocío 52 ° F
Humedad 25%
Precipitaciones 0.00 pul
Espesor de la nieve No disponible.
UV 9 de una escala de 12
Polen No disponible.
Calidad del aire No disponible.
Flu Activity No disponible.
METAR LEMD 011330Z 23007KT 180V340 9999 FEW050 35/11 Q1016 NOSIG

More Conditions Fewer Conditions

10-Day Weather Forecast

Almanac

Astronomía

Sep. 01, 2014 Salida Puesta
Hora real 7:41 AM CEST 8:46 PM CEST
Crepúsculo civil 7:13 AM CEST 9:14 PM CEST
Crepúsculo náutico 6:39 AM CEST 9:47 PM CEST
Crepúsculo astronómico 6:04 AM CEST 10:22 PM CEST
Luna 2:14 PM CEST Sin puesta de luna
Horas de luz 14h 01m
Horas de luz
13h 05m
Tomorrow will be 2m 34s shorter.
Creciente, 41% of the Moon is Illuminated
Hoy
Creciente
Sep 2
Cuarto creciente
Sep 8
Luna llena
Sep 15
Cuarto menguante
Sep 24
Nueva

Extremos de ayer

Máximos del país Bajas del país

Community

WunderPhotos

Upload Photos

1,749,222 ¡fotos cargadas!

Nearby

Calidad del aire

Not available.

Grosos de nieve

Not available.

Actividad de terremotos

Ciudad Distance Mag. Tiempo y dato
No hay informes recientes de la actividad sísmica.
Magnitud mínima muestra es 2,5.

Temperaturas de aguas costeras

Lugar Temperatura
Sin partes meteorológicos de las estaciones

Estaciones meteorológicas cercanas